Accueil
METAR-TAF:

METAR-TAF

Aéroports :

Saragosse, Espagne

Aéroport de Saragosse

latitude: 41-40N, longitude: 001-01W, altitude: 263 m

Observation

Le bulletin a été fait il y a 30 minutes, à 02:00 UTC
Vent 8 kt de ouest
Température 6°C
Humidité 81%
Pression 1017 hPa
Visibilité 10 km ou plus
Quelques nuages à une hauteur de 4000 ft

METAR: LEZG 010200Z 26008KT 9999 FEW040 06/03 Q1017

Heure: 04:30 (02:30 UTC)

Prévision

Le bulletin a été fait il y a 3 heures et 30 minutes, à 23:00 UTC
Prévision valable du 01 à 00 UTC au 01 à 24 UTC
Vent 9 kt de nord-ouest
Visibilité 10 km ou plus
Quelques nuages à une hauteur de 4000 ft
Temporairement
du 01 à 02 UTC au 01 à 08 UTC
Vent 6 kt de ouest
Evoluant progressivement
du 01 à 18 UTC au 01 à 20 UTC
Vent 3 kt de direction variable

TAF: LEZG 302300Z 0100/0124 31009KT 9999 FEW040 TX20/0114Z TN08/0106Z TEMPO 0102/0108 27006KT BECMG 0118/0120 VRB03KT

Observations et prévisions météorologiques de plus de 4000 aéroports (messages METAR et TAF).

Les stations disponibles sont représentées par des disques jaunes et rouges sur la carte.

Passer la souris dessus pour voir le nom de la station.

Cliquer dessus pour voir les observations et prévisions météorologiques.

Pour changer de carte: cliquez sur les boutons verts avec une croix noire pour zoomer, sur le bouton vert avec un tiret pour effectuer un zoom arrière, ou sur les flèches vertes pour les cartes adjacentes.


METAR-TAF: